カンゲルルススアーク の空港の天気 - METARとTAF

カンゲルルススアーク空港 ( BGSF / SFJ ) - グリーンランド カンゲルルススアーク
飛行場実況気象(Metar)
観測時間05/26 20:50 WGST (05/26 22:50 UTC)
風向・風速北北東 4m/s
視程-
天気現象
少しの雲 雲底高度 1190m
全天の8割程度の雲 雲底高度 2440m
気温6℃
湿度65%
気圧999hPa
METARBGSF 262250Z AUTO 02007KT 9999NDV FEW039/// BKN080/// 06/M00 Q0999
過去の天気等 Google飛行場航空写真 Wunderground天気予報

過去48時間のMETAR

飛行場予報(TAF)
発表時間: 5/26 14:55 WGST (5/26 16:55 UTC)
予報対象時間: 26日16時 WGST ~ 26日22時 WGST
風向・風速東北東 4m/s
視程10km以上
全天の4割程度の雲 雲底高度 910m
全天の8割程度の雲 雲底高度 2740m
26日16時 WGST ~ 26日18時 WGST に一時的に
少しの雲 雲底高度 610m
全天の8割程度の雲 雲底高度 1070m
26日18時 WGST ~ 26日22時 WGST に一時的に
視程4000m
天気現象弱い雨雪
全天の8割程度の雲 雲底高度 610m
TAF BGSF 261655Z 2618/2624 07008KT 9999 SCT030 BKN090
TEMPO 2618/2620 FEW020 BKN035
TEMPO 2620/2624 4000 -RASN BKN020